createdAt,value
2018-02-24T00:02:13.824Z,-0.70
2018-02-24T00:04:41.328Z,-0.70
2018-02-24T00:07:08.919Z,-0.80
2018-02-24T00:09:36.621Z,-0.80
2018-02-24T00:12:04.252Z,-0.80
2018-02-24T00:14:31.930Z,-0.80
2018-02-24T00:16:59.549Z,-0.80
2018-02-24T00:19:27.090Z,-0.80
2018-02-24T00:21:54.651Z,-0.90
2018-02-24T00:24:22.225Z,-0.90
2018-02-24T00:26:49.794Z,-0.90
2018-02-24T00:29:17.544Z,-0.90
2018-02-24T00:31:45.101Z,-1.00
2018-02-24T00:34:12.695Z,-1.00
2018-02-24T00:36:40.279Z,-1.00
2018-02-24T00:39:07.788Z,-1.00
2018-02-24T00:41:35.402Z,-1.00
2018-02-24T00:44:03.105Z,-1.00
2018-02-24T00:46:30.601Z,-1.00
2018-02-24T00:48:58.127Z,-1.00
2018-02-24T00:51:26.407Z,-1.10
2018-02-24T00:53:53.944Z,-1.10
2018-02-24T00:56:21.458Z,-1.10
2018-02-24T00:58:48.971Z,-1.10
2018-02-24T01:01:16.664Z,-1.10
2018-02-24T01:03:44.180Z,-1.10
2018-02-24T01:06:11.700Z,-1.00
2018-02-24T01:08:39.206Z,-1.10
2018-02-24T01:11:06.735Z,-1.10
2018-02-24T01:13:34.288Z,-1.10
2018-02-24T01:16:01.907Z,-1.10
2018-02-24T01:18:30.251Z,-1.10
2018-02-24T01:20:57.763Z,-1.10
2018-02-24T01:23:26.040Z,-1.10
2018-02-24T01:25:53.633Z,-1.10
2018-02-24T01:28:21.934Z,-1.20
2018-02-24T01:30:49.489Z,-1.20
2018-02-24T01:33:17.749Z,-1.30
2018-02-24T01:35:45.350Z,-1.30
2018-02-24T01:38:12.913Z,-1.30
2018-02-24T01:40:41.213Z,-1.30
2018-02-24T01:43:09.493Z,-1.30
2018-02-24T01:45:37.005Z,-1.40
2018-02-24T01:48:04.493Z,-1.40
2018-02-24T01:50:41.830Z,-1.40
2018-02-24T01:53:09.456Z,-1.30
2018-02-24T01:55:37.016Z,-1.30
2018-02-24T01:58:04.545Z,-1.30
2018-02-24T02:00:32.143Z,-1.30
2018-02-24T02:02:59.626Z,-1.30
2018-02-24T02:05:27.165Z,-1.30
2018-02-24T02:07:55.484Z,-1.20
2018-02-24T02:10:22.990Z,-1.30
2018-02-24T02:12:50.626Z,-1.20
2018-02-24T02:15:18.282Z,-1.30
2018-02-24T02:17:46.557Z,-1.20
2018-02-24T02:20:14.093Z,-1.20
2018-02-24T02:22:41.603Z,-1.10
2018-02-24T02:25:09.929Z,-1.20
2018-02-24T02:27:37.438Z,-1.20
2018-02-24T02:30:04.965Z,-1.10
2018-02-24T02:32:33.314Z,-1.10
2018-02-24T02:35:00.831Z,-1.10
2018-02-24T02:37:28.398Z,-1.10
2018-02-24T02:39:56.552Z,-1.10
2018-02-24T02:42:24.818Z,-1.20
2018-02-24T02:44:52.337Z,-1.20
2018-02-24T02:47:19.847Z,-1.20
2018-02-24T02:49:47.341Z,-1.20
2018-02-24T02:52:14.869Z,-1.10
2018-02-24T02:54:43.045Z,-1.10
2018-02-24T02:57:10.599Z,-1.10
2018-02-24T02:59:38.098Z,-1.10
2018-02-24T03:02:05.626Z,-1.10
2018-02-24T03:04:33.884Z,-1.10
2018-02-24T03:07:01.414Z,-1.10
2018-02-24T03:09:28.953Z,-1.10
2018-02-24T03:11:56.463Z,-1.10
2018-02-24T03:14:23.972Z,-1.00
2018-02-24T03:16:51.486Z,-1.00
2018-02-24T03:19:18.981Z,-1.00
2018-02-24T03:21:46.602Z,-0.90
2018-02-24T03:24:14.904Z,-0.90
2018-02-24T03:26:43.197Z,-0.90
2018-02-24T03:29:11.498Z,-0.90
2018-02-24T03:31:39.025Z,-0.90
2018-02-24T03:34:06.615Z,-0.80
2018-02-24T03:36:34.942Z,-0.90
2018-02-24T03:39:02.472Z,-0.90
2018-02-24T03:41:30.817Z,-0.80
2018-02-24T03:43:58.339Z,-0.90
2018-02-24T03:46:28.205Z,-0.80
2018-02-24T03:48:55.720Z,-0.80
2018-02-24T03:51:23.214Z,-0.70
2018-02-24T03:53:50.729Z,-0.70
2018-02-24T03:56:18.266Z,-0.70
2018-02-24T03:58:45.778Z,-0.70
2018-02-24T04:01:13.378Z,-0.70
2018-02-24T04:03:41.634Z,-0.60
2018-02-24T04:06:09.155Z,-0.70
2018-02-24T04:08:36.709Z,-0.60
2018-02-24T04:11:04.990Z,-0.60
2018-02-24T04:13:32.560Z,-0.60
2018-02-24T04:16:00.939Z,-0.60
2018-02-24T04:18:28.427Z,-0.60
2018-02-24T04:20:57.560Z,-0.60
2018-02-24T04:23:25.054Z,-0.60
2018-02-24T04:25:52.560Z,-0.60
2018-02-24T04:28:20.150Z,-0.60
2018-02-24T04:30:47.726Z,-0.50
2018-02-24T04:33:16.022Z,-0.50
2018-02-24T04:35:44.317Z,-0.50
2018-02-24T04:38:11.830Z,-0.50
2018-02-24T04:40:39.334Z,-0.50
2018-02-24T04:43:07.631Z,-0.40
2018-02-24T04:45:35.895Z,-0.40
2018-02-24T04:48:03.724Z,-0.50
2018-02-24T04:50:31.315Z,-0.40
2018-02-24T04:52:58.930Z,-0.40
2018-02-24T04:55:26.449Z,-0.40
2018-02-24T04:57:53.950Z,-0.30
2018-02-24T05:00:21.653Z,-0.30
2018-02-24T05:02:49.922Z,-0.30
2018-02-24T05:05:17.517Z,-0.30
2018-02-24T05:07:45.789Z,-0.20
2018-02-24T05:10:13.297Z,-0.30
2018-02-24T05:12:41.619Z,-0.20
2018-02-24T05:15:09.958Z,4.30
2018-02-24T05:17:37.825Z,4.30
2018-02-24T05:20:05.425Z,4.60
2018-02-24T05:22:33.730Z,3.00
2018-02-24T05:25:01.345Z,3.00
2018-02-24T05:27:28.970Z,2.40
2018-02-24T05:29:56.625Z,1.90
2018-02-24T05:32:24.398Z,1.60
2018-02-24T05:34:52.652Z,1.00
2018-02-24T05:37:20.169Z,1.00
2018-02-24T05:39:48.440Z,0.80
2018-02-24T05:42:16.691Z,0.70
2018-02-24T05:44:44.292Z,0.70
2018-02-24T05:47:13.342Z,0.60
2018-02-24T05:49:40.881Z,0.50
2018-02-24T05:52:09.293Z,0.50
2018-02-24T05:54:36.783Z,0.50
2018-02-24T05:57:04.260Z,0.50
2018-02-24T05:59:31.753Z,0.50
2018-02-24T06:01:59.228Z,0.50
2018-02-24T06:04:26.799Z,0.50
2018-02-24T06:06:54.512Z,0.50
2018-02-24T06:09:22.005Z,0.40
2018-02-24T06:11:49.650Z,0.40
2018-02-24T06:14:17.198Z,0.40
2018-02-24T06:16:44.782Z,0.40
2018-02-24T06:19:13.074Z,0.30
2018-02-24T06:21:41.357Z,0.30
2018-02-24T06:24:09.900Z,0.30
2018-02-24T06:26:37.393Z,0.30
2018-02-24T06:29:05.982Z,0.30
2018-02-24T06:31:33.474Z,0.30
2018-02-24T06:34:01.753Z,0.20
2018-02-24T06:36:29.223Z,0.20
2018-02-24T06:38:56.721Z,0.20
2018-02-24T06:41:24.323Z,0.20
2018-02-24T06:43:51.874Z,0.20
2018-02-24T06:46:20.192Z,0.20
2018-02-24T06:48:48.070Z,0.20
2018-02-24T06:51:15.633Z,0.20
2018-02-24T06:53:43.182Z,0.20
2018-02-24T06:56:11.481Z,0.20
2018-02-24T06:58:39.029Z,0.20
2018-02-24T07:01:06.521Z,0.20
2018-02-24T07:03:34.062Z,0.20
2018-02-24T07:06:01.665Z,0.20
2018-02-24T07:08:29.178Z,0.10
2018-02-24T07:10:56.718Z,0.10
2018-02-24T07:13:24.209Z,0.10
2018-02-24T07:15:51.766Z,0.10
2018-02-24T07:18:19.401Z,0.10
2018-02-24T07:20:46.990Z,0.10
2018-02-24T07:23:15.284Z,0.20
2018-02-24T07:25:42.916Z,0.20
2018-02-24T07:28:11.252Z,0.20
2018-02-24T07:30:39.361Z,0.20
2018-02-24T07:33:06.894Z,0.20
2018-02-24T07:35:34.468Z,0.20
2018-02-24T07:38:02.014Z,0.20
2018-02-24T07:40:29.754Z,0.20
2018-02-24T07:42:57.274Z,0.30
2018-02-24T07:45:24.850Z,0.30
2018-02-24T07:47:53.472Z,0.30
2018-02-24T07:50:21.139Z,0.30
2018-02-24T07:52:48.819Z,0.30
2018-02-24T07:55:16.382Z,0.30
2018-02-24T07:57:43.886Z,0.30
2018-02-24T08:00:11.446Z,0.30
2018-02-24T08:02:38.977Z,0.40
2018-02-24T08:05:06.524Z,0.40
2018-02-24T08:07:34.112Z,0.50
2018-02-24T08:10:01.664Z,0.50
2018-02-24T08:12:30.004Z,0.60
2018-02-24T08:14:57.683Z,0.60
2018-02-24T08:17:25.240Z,0.60
2018-02-24T08:19:52.825Z,0.60
2018-02-24T08:22:20.362Z,0.70
2018-02-24T08:24:48.666Z,0.80
2018-02-24T08:27:16.955Z,1.00
2018-02-24T08:29:45.353Z,1.00
2018-02-24T08:32:13.525Z,1.00
2018-02-24T08:34:41.833Z,1.00
2018-02-24T08:37:09.409Z,0.90
2018-02-24T08:39:36.935Z,0.90
2018-02-24T08:42:04.575Z,0.90
2018-02-24T08:44:32.112Z,0.90
2018-02-24T08:47:00.372Z,0.90
2018-02-24T08:49:27.970Z,0.90
2018-02-24T08:51:55.461Z,1.00
2018-02-24T08:54:22.989Z,0.90
2018-02-24T08:56:50.528Z,1.00
2018-02-24T08:59:18.121Z,1.00
2018-02-24T09:01:45.639Z,1.00
2018-02-24T09:04:13.154Z,1.00
2018-02-24T09:06:40.710Z,1.10
2018-02-24T09:09:08.262Z,1.10
2018-02-24T09:11:35.802Z,1.20
2018-02-24T09:14:04.068Z,1.30
2018-02-24T09:16:31.709Z,1.30
2018-02-24T09:18:59.234Z,1.40
2018-02-24T09:21:27.570Z,1.40
2018-02-24T09:23:56.238Z,1.40
2018-02-24T09:26:23.745Z,1.50
2018-02-24T09:28:51.387Z,1.60
2018-02-24T09:31:19.014Z,1.70
2018-02-24T09:33:46.648Z,1.80
2018-02-24T09:36:14.172Z,1.90
2018-02-24T09:38:42.712Z,2.20
2018-02-24T09:41:10.246Z,2.20
2018-02-24T09:43:38.685Z,2.60
2018-02-24T09:46:06.257Z,2.60
2018-02-24T09:48:33.779Z,2.90
2018-02-24T09:51:02.194Z,3.50
2018-02-24T09:53:29.758Z,3.50
2018-02-24T09:55:57.385Z,3.80
2018-02-24T09:58:25.111Z,4.00
2018-02-24T10:00:52.621Z,4.40
2018-02-24T10:03:20.357Z,4.70
2018-02-24T10:05:47.862Z,4.80
2018-02-24T10:08:15.420Z,4.90
2018-02-24T10:10:43.035Z,5.20
2018-02-24T10:13:10.665Z,5.60
2018-02-24T10:15:38.525Z,6.00
2018-02-24T10:18:06.095Z,6.30
2018-02-24T10:20:33.766Z,6.60
2018-02-24T10:23:01.393Z,6.80
2018-02-24T10:25:28.925Z,7.00
2018-02-24T10:27:56.539Z,7.00
2018-02-24T10:30:24.071Z,7.10
2018-02-24T10:32:51.712Z,7.20
2018-02-24T10:35:20.162Z,7.70
2018-02-24T10:37:47.674Z,7.70
2018-02-24T10:40:16.053Z,8.10
2018-02-24T10:42:43.560Z,8.10
2018-02-24T10:45:11.085Z,8.00
2018-02-24T10:47:38.648Z,8.20
2018-02-24T10:50:07.722Z,9.00
2018-02-24T10:52:35.340Z,9.00
2018-02-24T10:55:03.655Z,10.00
2018-02-24T10:57:31.364Z,10.00
2018-02-24T10:59:58.912Z,10.50
2018-02-24T11:02:26.609Z,11.00
2018-02-24T11:04:54.371Z,11.30
2018-02-24T11:07:21.887Z,11.50
2018-02-24T11:09:49.513Z,11.90
2018-02-24T11:12:17.022Z,12.20
2018-02-24T11:14:44.558Z,12.70
2018-02-24T11:17:12.127Z,13.00
2018-02-24T11:19:39.797Z,13.30
2018-02-24T11:22:07.576Z,13.50
2018-02-24T11:24:35.100Z,13.70
2018-02-24T11:27:02.693Z,14.10
2018-02-24T11:29:31.048Z,14.00
2018-02-24T11:31:58.615Z,14.00
2018-02-24T11:34:26.236Z,13.90
2018-02-24T11:36:53.872Z,14.00
2018-02-24T11:39:27.173Z,14.10
2018-02-24T11:41:54.763Z,14.20
2018-02-24T11:44:22.400Z,14.50
2018-02-24T11:46:49.905Z,14.30
2018-02-24T11:49:18.189Z,14.60
2018-02-24T11:51:45.802Z,14.50
2018-02-24T11:54:13.440Z,14.60
2018-02-24T11:56:41.860Z,15.10
2018-02-24T11:59:09.597Z,15.00
2018-02-24T12:01:37.716Z,15.10
2018-02-24T12:04:05.262Z,15.10
2018-02-24T12:06:32.754Z,15.00
2018-02-24T12:09:00.294Z,15.00
2018-02-24T12:11:27.865Z,15.30
2018-02-24T12:13:56.191Z,15.20
2018-02-24T12:16:23.772Z,15.20
2018-02-24T12:18:51.327Z,15.10
2018-02-24T12:21:18.895Z,14.80
2018-02-24T12:23:47.259Z,14.50
2018-02-24T12:26:14.795Z,14.40
2018-02-24T12:28:42.379Z,14.80
2018-02-24T12:31:09.914Z,14.90
2018-02-24T12:33:37.456Z,14.90
2018-02-24T12:36:05.014Z,14.50
2018-02-24T12:38:32.640Z,14.40
2018-02-24T12:41:00.180Z,14.30
2018-02-24T12:43:28.545Z,14.00
2018-02-24T12:45:56.048Z,13.90
2018-02-24T12:48:25.190Z,13.20
2018-02-24T12:50:52.724Z,13.20
2018-02-24T12:53:21.040Z,13.00
2018-02-24T12:55:48.599Z,13.00
2018-02-24T12:58:16.994Z,12.70
2018-02-24T13:00:44.591Z,12.60
2018-02-24T13:03:12.238Z,12.80
2018-02-24T13:05:39.757Z,13.00
2018-02-24T13:08:07.460Z,12.70
2018-02-24T13:10:35.736Z,12.00
2018-02-24T13:13:03.313Z,12.00
2018-02-24T13:15:31.631Z,12.00
2018-02-24T13:17:59.949Z,11.80
2018-02-24T13:20:27.469Z,11.70
2018-02-24T13:22:55.931Z,11.90
2018-02-24T13:25:23.533Z,11.90
2018-02-24T13:27:51.124Z,12.00
2018-02-24T13:30:18.617Z,12.00
2018-02-24T13:32:46.273Z,11.60
2018-02-24T13:35:13.915Z,11.70
2018-02-24T13:37:42.228Z,11.50
2018-02-24T13:40:09.920Z,11.50
2018-02-24T13:42:37.643Z,11.40
2018-02-24T13:45:05.216Z,11.50
2018-02-24T13:47:32.769Z,11.30
2018-02-24T13:50:00.298Z,11.00
2018-02-24T13:52:27.950Z,10.60
2018-02-24T13:54:56.259Z,9.70
2018-02-24T13:57:23.765Z,9.70
2018-02-24T13:59:51.294Z,9.50
2018-02-24T14:02:18.831Z,9.10
2018-02-24T14:04:47.104Z,9.00
2018-02-24T14:07:14.636Z,8.90
2018-02-24T14:09:42.187Z,9.00
2018-02-24T14:12:10.560Z,9.20
2018-02-24T14:14:38.150Z,9.10
2018-02-24T14:17:05.853Z,9.20
2018-02-24T14:19:33.367Z,9.40
2018-02-24T14:22:01.031Z,9.40
2018-02-24T14:24:28.536Z,9.70
2018-02-24T14:26:56.220Z,9.90
2018-02-24T14:29:23.728Z,9.70
2018-02-24T14:31:51.313Z,9.60
2018-02-24T14:34:18.841Z,9.40
2018-02-24T14:36:46.514Z,9.20
2018-02-24T14:39:14.626Z,9.00
2018-02-24T14:41:42.218Z,8.80
2018-02-24T14:44:10.535Z,8.60
2018-02-24T14:46:38.840Z,8.40
2018-02-24T14:49:06.520Z,8.30
2018-02-24T14:51:34.087Z,8.20
2018-02-24T14:54:01.678Z,7.80
2018-02-24T14:56:29.178Z,7.50
2018-02-24T14:58:56.744Z,7.40
2018-02-24T15:01:24.326Z,7.30
2018-02-24T15:03:51.927Z,7.10
2018-02-24T15:06:20.236Z,6.90
2018-02-24T15:08:49.252Z,6.80
2018-02-24T15:11:16.745Z,6.80
2018-02-24T15:13:44.360Z,6.60
2018-02-24T15:16:11.871Z,6.60
2018-02-24T15:18:39.536Z,6.70
2018-02-24T15:21:07.143Z,6.60
2018-02-24T15:23:34.622Z,6.50
2018-02-24T15:26:02.145Z,6.20
2018-02-24T15:28:31.346Z,5.80
2018-02-24T15:30:59.644Z,5.60
2018-02-24T15:33:27.307Z,5.60
2018-02-24T15:35:54.855Z,5.40
2018-02-24T15:38:22.381Z,5.30
2018-02-24T15:40:49.869Z,5.30
2018-02-24T15:43:17.489Z,5.30
2018-02-24T15:45:45.024Z,5.00
2018-02-24T15:48:12.571Z,5.00
2018-02-24T15:50:40.117Z,4.90
2018-02-24T15:53:07.753Z,4.70
2018-02-24T15:55:36.034Z,4.50
2018-02-24T15:58:05.088Z,4.40
2018-02-24T16:00:33.392Z,4.40
2018-02-24T16:03:00.992Z,4.30
2018-02-24T16:05:28.512Z,4.40
2018-02-24T16:07:56.009Z,4.30
2018-02-24T16:10:23.539Z,4.10
2018-02-24T16:12:51.285Z,4.00
2018-02-24T16:15:19.201Z,3.80
2018-02-24T16:17:46.747Z,3.70
2018-02-24T16:20:15.149Z,3.50
2018-02-24T16:22:43.538Z,3.40
2018-02-24T16:25:11.365Z,3.40
2018-02-24T16:27:38.894Z,3.30
2018-02-24T16:30:07.211Z,3.20
2018-02-24T16:32:34.857Z,3.30
2018-02-24T16:35:02.507Z,3.20
2018-02-24T16:37:31.023Z,3.00
2018-02-24T16:39:58.583Z,2.90
2018-02-24T16:42:26.922Z,2.80
2018-02-24T16:44:54.420Z,2.80
2018-02-24T16:47:22.031Z,2.70
2018-02-24T16:49:49.551Z,2.60
2018-02-24T16:52:17.096Z,2.60
2018-02-24T16:54:44.634Z,2.50
2018-02-24T16:57:12.921Z,2.40
2018-02-24T16:59:41.448Z,2.30
2018-02-24T17:02:08.965Z,2.30
2018-02-24T17:04:36.578Z,2.20
2018-02-24T17:07:04.135Z,2.10
2018-02-24T17:09:31.647Z,2.20
2018-02-24T17:11:59.187Z,2.10
2018-02-24T17:14:26.697Z,2.10
2018-02-24T17:16:54.273Z,2.00
2018-02-24T17:19:21.759Z,1.90
2018-02-24T17:21:49.489Z,1.90
2018-02-24T17:24:17.113Z,1.80
2018-02-24T17:26:44.819Z,1.70
2018-02-24T17:29:12.344Z,1.70
2018-02-24T17:31:39.919Z,1.70
2018-02-24T17:34:08.559Z,1.70
2018-02-24T17:36:36.117Z,1.60
2018-02-24T17:39:04.380Z,1.60
2018-02-24T17:41:32.783Z,1.60
2018-02-24T17:44:01.049Z,1.60
2018-02-24T17:46:28.639Z,1.50
2018-02-24T17:48:57.059Z,1.50
2018-02-24T17:51:24.621Z,1.50
2018-02-24T17:53:52.192Z,1.50
2018-02-24T17:56:20.037Z,1.40
2018-02-24T17:58:49.070Z,1.20
2018-02-24T18:01:17.347Z,1.20
2018-02-24T18:03:45.622Z,1.20
2018-02-24T18:06:13.233Z,1.20
2018-02-24T18:08:40.916Z,1.20
2018-02-24T18:11:08.593Z,1.20
2018-02-24T18:13:36.144Z,1.20
2018-02-24T18:16:04.462Z,1.10
2018-02-24T18:18:32.118Z,1.10
2018-02-24T18:20:59.640Z,1.10
2018-02-24T18:23:27.126Z,1.10
2018-02-24T18:25:55.624Z,1.10
2018-02-24T18:28:23.901Z,1.10
2018-02-24T18:30:52.270Z,1.00
2018-02-24T18:33:19.832Z,1.00
2018-02-24T18:35:47.477Z,1.00
2018-02-24T18:38:15.060Z,1.00
2018-02-24T18:40:42.603Z,1.00
2018-02-24T18:43:10.927Z,0.80
2018-02-24T18:45:38.634Z,0.70
2018-02-24T18:48:06.212Z,0.70
2018-02-24T18:50:34.541Z,0.60
2018-02-24T18:53:02.113Z,0.60
2018-02-24T18:55:30.164Z,0.70
2018-02-24T18:57:57.749Z,0.70
2018-02-24T19:00:26.084Z,0.60
2018-02-24T19:02:53.662Z,0.50
2018-02-24T19:05:21.176Z,0.50
2018-02-24T19:07:49.521Z,0.60
2018-02-24T19:10:17.054Z,0.50
2018-02-24T19:12:44.548Z,0.50
2018-02-24T19:15:12.318Z,0.50
2018-02-24T19:17:39.881Z,0.50
2018-02-24T19:20:07.431Z,0.50
2018-02-24T19:22:35.769Z,0.40
2018-02-24T19:25:03.374Z,0.40
2018-02-24T19:27:30.862Z,0.30
2018-02-24T19:29:59.134Z,0.40
2018-02-24T19:32:27.596Z,0.30
2018-02-24T19:34:55.134Z,0.30
2018-02-24T19:37:22.727Z,0.30
2018-02-24T19:39:50.258Z,0.30
2018-02-24T19:42:18.656Z,0.30
2018-02-24T19:44:46.246Z,0.20
2018-02-24T19:47:13.881Z,0.20
2018-02-24T19:49:42.258Z,0.10
2018-02-24T19:52:09.920Z,0.10
2018-02-24T19:54:37.548Z,0.20
2018-02-24T19:57:05.105Z,0.10
2018-02-24T19:59:32.673Z,0.10
2018-02-24T20:02:00.360Z,0.00
2018-02-24T20:04:27.880Z,0.00
2018-02-24T20:06:55.564Z,0.00
2018-02-24T20:09:23.213Z,0.00
2018-02-24T20:11:50.894Z,0.00
2018-02-24T20:14:18.412Z,0.00
2018-02-24T20:16:46.860Z,0.00
2018-02-24T20:19:14.388Z,-0.10
2018-02-24T20:21:41.978Z,-0.10
2018-02-24T20:24:09.636Z,0.00
2018-02-24T20:26:37.337Z,-0.10
2018-02-24T20:29:05.040Z,-0.10
2018-02-24T20:31:32.655Z,-0.20
2018-02-24T20:34:00.204Z,-0.30
2018-02-24T20:36:28.613Z,-0.30
2018-02-24T20:38:56.406Z,-0.30
2018-02-24T20:41:23.960Z,-0.30
2018-02-24T20:43:52.429Z,-0.40
2018-02-24T20:46:20.730Z,-0.40
2018-02-24T20:48:49.953Z,-0.50
2018-02-24T20:51:17.642Z,-0.50
2018-02-24T20:53:45.161Z,-0.50
2018-02-24T20:56:12.737Z,-0.50
2018-02-24T20:58:40.258Z,-0.50
2018-02-24T21:01:07.809Z,-0.50
2018-02-24T21:03:35.348Z,-0.60
2018-02-24T21:06:03.685Z,-0.60
2018-02-24T21:08:31.236Z,-0.60
2018-02-24T21:10:59.023Z,-0.70
2018-02-24T21:13:26.676Z,-0.70
2018-02-24T21:15:55.132Z,-0.80
2018-02-24T21:18:22.677Z,-0.80
2018-02-24T21:20:50.238Z,-0.80
2018-02-24T21:23:17.835Z,-0.90
2018-02-24T21:25:45.497Z,-1.00
2018-02-24T21:28:13.028Z,-0.90
2018-02-24T21:30:41.434Z,-1.00
2018-02-24T21:33:08.971Z,-1.00
2018-02-24T21:35:36.689Z,-1.00
2018-02-24T21:38:04.276Z,-1.00
2018-02-24T21:40:31.888Z,-1.00
2018-02-24T21:42:59.606Z,-1.10
2018-02-24T21:45:27.142Z,-1.10
2018-02-24T21:47:54.674Z,-1.10
2018-02-24T21:50:23.197Z,-1.20
2018-02-24T21:52:50.845Z,-1.20
2018-02-24T21:55:18.478Z,-1.20
2018-02-24T21:57:46.801Z,-1.30
2018-02-24T22:00:14.429Z,-1.30
2018-02-24T22:02:42.720Z,-1.40
2018-02-24T22:05:11.041Z,-1.40
2018-02-24T22:07:38.577Z,-1.40
2018-02-24T22:10:06.857Z,-1.40
2018-02-24T22:12:35.132Z,-1.40
2018-02-24T22:15:02.744Z,-1.40
2018-02-24T22:17:30.330Z,-1.40
2018-02-24T22:19:57.910Z,-1.40
2018-02-24T22:22:25.428Z,-1.50
2018-02-24T22:24:52.997Z,-1.60
2018-02-24T22:27:20.656Z,-1.60
2018-02-24T22:29:48.175Z,-1.60
2018-02-24T22:32:15.745Z,-1.60
2018-02-24T22:34:43.328Z,-1.60
2018-02-24T22:37:10.898Z,-1.60
2018-02-24T22:39:38.538Z,-1.60
2018-02-24T22:42:06.119Z,-1.70
2018-02-24T22:44:34.419Z,-1.80
2018-02-24T22:47:02.720Z,-1.80
2018-02-24T22:49:30.232Z,-1.80
2018-02-24T22:51:57.802Z,-1.80
2018-02-24T22:54:25.341Z,-1.80
2018-02-24T22:56:52.923Z,-1.80
2018-02-24T22:59:20.738Z,-1.80
2018-02-24T23:01:48.709Z,-1.80
2018-02-24T23:04:16.315Z,-1.80
2018-02-24T23:06:44.577Z,-1.80
2018-02-24T23:09:13.610Z,-1.80
2018-02-24T23:11:41.867Z,-1.80
2018-02-24T23:14:09.590Z,-1.80
2018-02-24T23:16:37.258Z,-1.80
2018-02-24T23:19:04.806Z,-1.90
2018-02-24T23:21:33.329Z,-2.00
2018-02-24T23:24:00.822Z,-2.00
2018-02-24T23:26:28.348Z,-2.00
2018-02-24T23:28:56.786Z,-2.10
2018-02-24T23:31:24.357Z,-2.20
2018-02-24T23:33:51.898Z,-2.20
2018-02-24T23:36:19.433Z,-2.20
2018-02-24T23:38:46.946Z,-2.20
2018-02-24T23:41:14.614Z,-2.20
2018-02-24T23:43:42.140Z,-2.20
2018-02-24T23:46:09.626Z,-2.20
2018-02-24T23:48:37.921Z,-2.30
2018-02-24T23:51:06.201Z,-2.30
2018-02-24T23:53:34.485Z,-2.40
2018-02-24T23:56:02.140Z,-2.40
2018-02-24T23:58:29.666Z,-2.40
